Terminal Aerodrome Forecast
Issued by NWS

Home | Current Version | Previous Version | Graphics & Text | Print | Product List | Glossary On
Versions: 1 2 3 4 5 6 7 8 9 10 11 12 13 14 15 16
286
FTUS43 KBIS 040457 AAB
TAFMOT
TAF AMD
KMOT 040457Z 0405/0424 27010KT 2SM -SN BKN025
     FM040600 31011KT P6SM OVC015
     FM041800 23006KT P6SM BKN030
     FM042100 20006KT P6SM BKN200=

USA.gov is the U.S. government's official web portal to all federal, state and local government web resources and services.